sensor_id;sensor_type;location;lat;lon;timestamp;P1;durP1;ratioP1;P2;durP2;ratioP2
62110;SDS011;48102;47.526;19.072;2022-07-29T03:46:50;2.40;;;1.70;;
62110;SDS011;48102;47.526;19.072;2022-07-29T03:49:56;3.00;;;1.92;;
62110;SDS011;48102;47.526;19.072;2022-07-29T03:53:12;2.22;;;1.92;;
62110;SDS011;48102;47.526;19.072;2022-07-29T03:56:16;2.30;;;1.70;;
62110;SDS011;48102;47.526;19.072;2022-07-29T03:59:23;2.03;;;1.60;;
62110;SDS011;48102;47.526;19.072;2022-07-29T04:02:26;3.65;;;1.70;;
62110;SDS011;48102;47.526;19.072;2022-07-29T04:05:32;2.53;;;1.90;;
62110;SDS011;48102;47.526;19.072;2022-07-29T04:08:35;2.42;;;1.73;;
62110;SDS011;48102;47.526;19.072;2022-07-29T04:15:05;2.00;;;1.80;;
62110;SDS011;48102;47.526;19.072;2022-07-29T04:18:08;2.25;;;1.60;;
62110;SDS011;48102;47.526;19.072;2022-07-29T04:21:11;2.28;;;1.80;;
62110;SDS011;48102;47.526;19.072;2022-07-29T04:24:14;6.93;;;1.90;;
62110;SDS011;48102;47.526;19.072;2022-07-29T04:27:17;2.28;;;2.00;;
62110;SDS011;48102;47.526;19.072;2022-07-29T04:30:22;1.87;;;1.45;;
62110;SDS011;48102;47.526;19.072;2022-07-29T04:33:25;1.92;;;1.67;;
62110;SDS011;48102;47.526;19.072;2022-07-29T04:36:28;6.05;;;1.80;;
62110;SDS011;48102;47.526;19.072;2022-07-29T04:42:34;2.05;;;1.85;;
62110;SDS011;48102;47.526;19.072;2022-07-29T04:45:47;2.40;;;1.70;;
62110;SDS011;48102;47.526;19.072;2022-07-29T04:48:50;1.80;;;1.70;;
62110;SDS011;48102;47.526;19.072;2022-07-29T04:51:53;2.15;;;1.80;;
62110;SDS011;48102;47.526;19.072;2022-07-29T04:54:56;4.65;;;1.95;;
62110;SDS011;48102;47.526;19.072;2022-07-29T04:57:58;2.03;;;1.67;;
62110;SDS011;48102;47.526;19.072;2022-07-29T05:01:03;2.20;;;1.75;;
62110;SDS011;48102;47.526;19.072;2022-07-29T05:04:06;3.42;;;2.03;;
62110;SDS011;48102;47.526;19.072;2022-07-29T05:10:11;2.47;;;1.80;;
62110;SDS011;48102;47.526;19.072;2022-07-29T05:16:18;3.80;;;1.80;;
62110;SDS011;48102;47.526;19.072;2022-07-29T05:19:21;2.70;;;1.80;;
62110;SDS011;48102;47.526;19.072;2022-07-29T05:22:23;2.60;;;2.20;;
62110;SDS011;48102;47.526;19.072;2022-07-29T05:25:27;4.43;;;1.80;;
62110;SDS011;48102;47.526;19.072;2022-07-29T05:28:45;3.00;;;1.83;;
62110;SDS011;48102;47.526;19.072;2022-07-29T05:31:48;2.00;;;1.60;;
62110;SDS011;48102;47.526;19.072;2022-07-29T05:37:53;5.25;;;1.92;;
62110;SDS011;48102;47.526;19.072;2022-07-29T05:40:57;4.43;;;1.95;;
62110;SDS011;48102;47.526;19.072;2022-07-29T05:44:01;2.40;;;1.92;;
62110;SDS011;48102;47.526;19.072;2022-07-29T05:47:04;2.40;;;2.00;;
62110;SDS011;48102;47.526;19.072;2022-07-29T05:50:07;2.22;;;1.80;;
62110;SDS011;48102;47.526;19.072;2022-07-29T05:53:10;2.12;;;1.80;;
62110;SDS011;48102;47.526;19.072;2022-07-29T05:56:22;3.72;;;2.00;;
62110;SDS011;48102;47.526;19.072;2022-07-29T06:02:31;2.28;;;1.90;;
62110;SDS011;48102;47.526;19.072;2022-07-29T06:05:34;4.28;;;1.60;;
62110;SDS011;48102;47.526;19.072;2022-07-29T06:11:40;5.65;;;2.03;;
62110;SDS011;48102;47.526;19.072;2022-07-29T06:14:43;3.05;;;2.35;;
62110;SDS011;48102;47.526;19.072;2022-07-29T06:17:46;2.75;;;2.03;;
62110;SDS011;48102;47.526;19.072;2022-07-29T06:21:06;2.90;;;2.30;;
62110;SDS011;48102;47.526;19.072;2022-07-29T06:24:11;2.75;;;2.17;;
62110;SDS011;48102;47.526;19.072;2022-07-29T06:27:15;2.20;;;2.00;;
62110;SDS011;48102;47.526;19.072;2022-07-29T06:30:18;3.87;;;2.05;;
62110;SDS011;48102;47.526;19.072;2022-07-29T06:36:24;2.85;;;2.17;;
62110;SDS011;48102;47.526;19.072;2022-07-29T06:39:27;2.08;;;1.87;;
62110;SDS011;48102;47.526;19.072;2022-07-29T06:42:30;3.53;;;2.25;;
62110;SDS011;48102;47.526;19.072;2022-07-29T06:45:33;3.15;;;2.47;;
62110;SDS011;48102;47.526;19.072;2022-07-29T06:48:37;5.22;;;2.47;;
62110;SDS011;48102;47.526;19.072;2022-07-29T06:51:41;2.03;;;1.58;;
62110;SDS011;48102;47.526;19.072;2022-07-29T06:54:44;2.33;;;2.05;;
62110;SDS011;48102;47.526;19.072;2022-07-29T06:57:50;3.00;;;2.00;;
62110;SDS011;48102;47.526;19.072;2022-07-29T07:00:53;3.37;;;2.03;;
62110;SDS011;48102;47.526;19.072;2022-07-29T07:03:56;8.45;;;2.30;;
62110;SDS011;48102;47.526;19.072;2022-07-29T07:06:59;3.25;;;2.10;;
62110;SDS011;48102;47.526;19.072;2022-07-29T07:10:02;4.15;;;1.98;;
62110;SDS011;48102;47.526;19.072;2022-07-29T07:13:08;3.97;;;1.92;;
62110;SDS011;48102;47.526;19.072;2022-07-29T07:16:11;3.37;;;2.17;;
62110;SDS011;48102;47.526;19.072;2022-07-29T07:19:15;1.73;;;1.62;;
62110;SDS011;48102;47.526;19.072;2022-07-29T07:22:17;2.40;;;1.80;;
62110;SDS011;48102;47.526;19.072;2022-07-29T07:25:23;2.15;;;1.95;;
62110;SDS011;48102;47.526;19.072;2022-07-29T07:28:26;2.55;;;2.00;;
62110;SDS011;48102;47.526;19.072;2022-07-29T07:31:28;2.78;;;1.90;;
62110;SDS011;48102;47.526;19.072;2022-07-29T07:34:31;6.55;;;2.12;;
62110;SDS011;48102;47.526;19.072;2022-07-29T07:37:34;4.18;;;1.90;;
62110;SDS011;48102;47.526;19.072;2022-07-29T07:40:37;2.35;;;2.05;;
62110;SDS011;48102;47.526;19.072;2022-07-29T07:43:40;4.82;;;2.55;;
62110;SDS011;48102;47.526;19.072;2022-07-29T07:46:43;1.87;;;1.67;;
62110;SDS011;48102;47.526;19.072;2022-07-29T07:49:47;3.08;;;1.77;;
62110;SDS011;48102;47.526;19.072;2022-07-29T07:52:50;1.87;;;1.75;;
62110;SDS011;48102;47.526;19.072;2022-07-29T07:55:55;2.50;;;2.08;;
62110;SDS011;48102;47.526;19.072;2022-07-29T07:59:14;5.97;;;2.00;;
62110;SDS011;48102;47.526;19.072;2022-07-29T08:02:17;3.60;;;2.20;;
62110;SDS011;48102;47.526;19.072;2022-07-29T08:05:20;4.55;;;2.15;;
62110;SDS011;48102;47.526;19.072;2022-07-29T08:08:23;2.10;;;1.90;;
62110;SDS011;48102;47.526;19.072;2022-07-29T08:11:25;3.72;;;2.17;;
62110;SDS011;48102;47.526;19.072;2022-07-29T08:14:29;3.03;;;1.80;;
62110;SDS011;48102;47.526;19.072;2022-07-29T08:17:35;3.67;;;1.83;;
62110;SDS011;48102;47.526;19.072;2022-07-29T08:20:37;2.08;;;1.87;;
62110;SDS011;48102;47.526;19.072;2022-07-29T08:23:42;2.22;;;2.03;;
62110;SDS011;48102;47.526;19.072;2022-07-29T08:27:01;2.42;;;1.90;;
62110;SDS011;48102;47.526;19.072;2022-07-29T08:30:06;2.58;;;1.92;;
62110;SDS011;48102;47.526;19.072;2022-07-29T08:33:09;2.92;;;1.87;;
62110;SDS011;48102;47.526;19.072;2022-07-29T08:36:12;3.37;;;2.40;;
62110;SDS011;48102;47.526;19.072;2022-07-29T08:39:15;2.58;;;2.37;;
62110;SDS011;48102;47.526;19.072;2022-07-29T08:42:18;3.33;;;2.60;;
62110;SDS011;48102;47.526;19.072;2022-07-29T08:45:21;6.97;;;2.33;;
62110;SDS011;48102;47.526;19.072;2022-07-29T08:48:26;2.42;;;2.00;;
62110;SDS011;48102;47.526;19.072;2022-07-29T08:51:36;2.25;;;1.90;;
62110;SDS011;48102;47.526;19.072;2022-07-29T08:54:54;3.95;;;2.15;;
62110;SDS011;48102;47.526;19.072;2022-07-29T08:57:57;6.45;;;2.62;;
62110;SDS011;48102;47.526;19.072;2022-07-29T09:01:01;5.72;;;2.10;;
62110;SDS011;48102;47.526;19.072;2022-07-29T09:04:09;3.22;;;1.92;;
62110;SDS011;48102;47.526;19.072;2022-07-29T09:07:14;2.65;;;2.20;;
62110;SDS011;48102;47.526;19.072;2022-07-29T09:10:18;4.28;;;1.92;;
62110;SDS011;48102;47.526;19.072;2022-07-29T09:13:21;4.03;;;2.50;;
62110;SDS011;48102;47.526;19.072;2022-07-29T09:16:24;5.25;;;2.20;;
62110;SDS011;48102;47.526;19.072;2022-07-29T09:19:47;10.20;;;2.03;;
62110;SDS011;48102;47.526;19.072;2022-07-29T09:22:51;2.25;;;2.00;;
62110;SDS011;48102;47.526;19.072;2022-07-29T09:25:57;2.65;;;1.92;;
62110;SDS011;48102;47.526;19.072;2022-07-29T09:29:12;3.03;;;2.20;;
62110;SDS011;48102;47.526;19.072;2022-07-29T09:32:16;2.03;;;1.90;;
62110;SDS011;48102;47.526;19.072;2022-07-29T09:35:20;2.40;;;2.00;;
62110;SDS011;48102;47.526;19.072;2022-07-29T09:38:25;2.90;;;2.05;;
62110;SDS011;48102;47.526;19.072;2022-07-29T09:41:28;2.67;;;2.40;;
62110;SDS011;48102;47.526;19.072;2022-07-29T09:44:44;2.80;;;1.87;;
62110;SDS011;48102;47.526;19.072;2022-07-29T09:47:48;2.50;;;1.62;;
62110;SDS011;48102;47.526;19.072;2022-07-29T09:50:51;2.42;;;1.62;;
62110;SDS011;48102;47.526;19.072;2022-07-29T09:53:54;5.35;;;2.40;;
62110;SDS011;48102;47.526;19.072;2022-07-29T09:56:58;2.60;;;1.85;;
62110;SDS011;48102;47.526;19.072;2022-07-29T10:00:03;6.57;;;2.08;;
62110;SDS011;48102;47.526;19.072;2022-07-29T10:03:13;2.95;;;1.50;;
62110;SDS011;48102;47.526;19.072;2022-07-29T10:06:18;2.30;;;1.73;;
62110;SDS011;48102;47.526;19.072;2022-07-29T10:09:20;2.62;;;1.85;;
62110;SDS011;48102;47.526;19.072;2022-07-29T10:12:23;1.98;;;1.42;;
62110;SDS011;48102;47.526;19.072;2022-07-29T10:15:27;1.77;;;1.60;;
62110;SDS011;48102;47.526;19.072;2022-07-29T10:18:32;1.77;;;1.52;;
62110;SDS011;48102;47.526;19.072;2022-07-29T10:21:36;5.15;;;1.90;;
62110;SDS011;48102;47.526;19.072;2022-07-29T10:24:42;3.17;;;1.98;;
62110;SDS011;48102;47.526;19.072;2022-07-29T10:27:45;5.22;;;2.08;;
62110;SDS011;48102;47.526;19.072;2022-07-29T10:30:50;2.28;;;1.50;;
62110;SDS011;48102;47.526;19.072;2022-07-29T10:34:02;2.53;;;1.87;;
62110;SDS011;48102;47.526;19.072;2022-07-29T10:44:33;2.28;;;1.58;;
62110;SDS011;48102;47.526;19.072;2022-07-29T10:47:36;1.87;;;1.67;;
62110;SDS011;48102;47.526;19.072;2022-07-29T10:50:52;5.28;;;1.70;;
62110;SDS011;48102;47.526;19.072;2022-07-29T10:53:59;2.05;;;1.33;;
62110;SDS011;48102;47.526;19.072;2022-07-29T11:00:28;3.33;;;1.27;;
62110;SDS011;48102;47.526;19.072;2022-07-29T11:17:00;3.17;;;1.50;;
62110;SDS011;48102;47.526;19.072;2022-07-29T11:23:39;1.40;;;1.30;;
62110;SDS011;48102;47.526;19.072;2022-07-29T11:30:49;2.65;;;1.73;;
62110;SDS011;48102;47.526;19.072;2022-07-29T11:33:54;2.30;;;1.50;;
62110;SDS011;48102;47.526;19.072;2022-07-29T11:40:14;3.83;;;1.10;;
62110;SDS011;48102;47.526;19.072;2022-07-29T11:43:45;4.68;;;1.35;;
62110;SDS011;48102;47.526;19.072;2022-07-29T11:46:52;3.08;;;1.60;;
62110;SDS011;48102;47.526;19.072;2022-07-29T11:49:56;1.33;;;1.20;;
62110;SDS011;48102;47.526;19.072;2022-07-29T11:53:02;1.52;;;1.40;;
62110;SDS011;48102;47.526;19.072;2022-07-29T11:56:15;1.67;;;1.23;;
62110;SDS011;48102;47.526;19.072;2022-07-29T11:59:27;2.42;;;1.73;;
62110;SDS011;48102;47.526;19.072;2022-07-29T12:02:43;3.08;;;1.80;;
62110;SDS011;48102;47.526;19.072;2022-07-29T12:05:50;1.45;;;1.15;;
62110;SDS011;48102;47.526;19.072;2022-07-29T12:08:53;1.65;;;1.35;;
62110;SDS011;48102;47.526;19.072;2022-07-29T12:11:56;3.12;;;1.35;;
62110;SDS011;48102;47.526;19.072;2022-07-29T12:15:10;1.92;;;1.62;;
62110;SDS011;48102;47.526;19.072;2022-07-29T12:18:15;2.25;;;1.35;;
62110;SDS011;48102;47.526;19.072;2022-07-29T12:21:20;4.57;;;1.70;;
62110;SDS011;48102;47.526;19.072;2022-07-29T12:24:27;1.37;;;1.25;;
62110;SDS011;48102;47.526;19.072;2022-07-29T12:27:46;1.30;;;1.20;;
62110;SDS011;48102;47.526;19.072;2022-07-29T12:30:50;2.78;;;1.50;;
62110;SDS011;48102;47.526;19.072;2022-07-29T12:33:53;1.37;;;1.20;;
62110;SDS011;48102;47.526;19.072;2022-07-29T12:36:58;3.67;;;1.20;;
62110;SDS011;48102;47.526;19.072;2022-07-29T12:40:03;5.00;;;1.55;;
62110;SDS011;48102;47.526;19.072;2022-07-29T12:46:18;1.35;;;1.10;;
62110;SDS011;48102;47.526;19.072;2022-07-29T12:49:21;2.30;;;1.20;;
62110;SDS011;48102;47.526;19.072;2022-07-29T12:52:29;3.15;;;1.20;;
62110;SDS011;48102;47.526;19.072;2022-07-29T12:55:46;1.50;;;1.23;;
62110;SDS011;48102;47.526;19.072;2022-07-29T12:58:56;1.67;;;1.23;;
62110;SDS011;48102;47.526;19.072;2022-07-29T13:01:59;1.40;;;1.30;;
62110;SDS011;48102;47.526;19.072;2022-07-29T13:05:03;1.67;;;1.58;;
62110;SDS011;48102;47.526;19.072;2022-07-29T13:08:11;1.50;;;1.40;;
62110;SDS011;48102;47.526;19.072;2022-07-29T13:11:34;1.65;;;1.40;;
62110;SDS011;48102;47.526;19.072;2022-07-29T13:14:43;1.77;;;1.50;;
62110;SDS011;48102;47.526;19.072;2022-07-29T13:17:52;1.70;;;1.60;;
62110;SDS011;48102;47.526;19.072;2022-07-29T13:20:55;1.73;;;1.55;;
62110;SDS011;48102;47.526;19.072;2022-07-29T13:23:59;2.78;;;1.45;;
62110;SDS011;48102;47.526;19.072;2022-07-29T13:27:02;3.15;;;1.55;;
62110;SDS011;48102;47.526;19.072;2022-07-29T13:30:08;2.15;;;1.80;;
62110;SDS011;48102;47.526;19.072;2022-07-29T13:33:12;2.17;;;1.60;;
62110;SDS011;48102;47.526;19.072;2022-07-29T13:36:16;1.73;;;1.62;;
62110;SDS011;48102;47.526;19.072;2022-07-29T13:39:19;2.10;;;1.90;;
62110;SDS011;48102;47.526;19.072;2022-07-29T13:42:22;1.70;;;1.60;;
62110;SDS011;48102;47.526;19.072;2022-07-29T13:45:25;1.70;;;1.45;;
62110;SDS011;48102;47.526;19.072;2022-07-29T13:48:30;1.70;;;1.20;;
62110;SDS011;48102;47.526;19.072;2022-07-29T13:51:33;1.02;;;0.93;;
62110;SDS011;48102;47.526;19.072;2022-07-29T13:54:35;1.45;;;1.30;;
62110;SDS011;48102;47.526;19.072;2022-07-29T13:57:43;1.90;;;1.20;;
62110;SDS011;48102;47.526;19.072;2022-07-29T14:00:46;1.30;;;1.20;;
62110;SDS011;48102;47.526;19.072;2022-07-29T14:03:49;1.77;;;1.67;;
62110;SDS011;48102;47.526;19.072;2022-07-29T14:06:52;2.08;;;1.37;;
62110;SDS011;48102;47.526;19.072;2022-07-29T14:09:55;2.00;;;1.42;;
62110;SDS011;48102;47.526;19.072;2022-07-29T14:12:59;1.80;;;1.33;;
62110;SDS011;48102;47.526;19.072;2022-07-29T14:16:01;1.52;;;1.20;;
62110;SDS011;48102;47.526;19.072;2022-07-29T14:19:05;1.40;;;1.30;;
62110;SDS011;48102;47.526;19.072;2022-07-29T14:22:09;2.85;;;1.20;;
62110;SDS011;48102;47.526;19.072;2022-07-29T14:25:12;4.90;;;1.50;;
62110;SDS011;48102;47.526;19.072;2022-07-29T14:28:17;2.25;;;1.27;;
62110;SDS011;48102;47.526;19.072;2022-07-29T14:31:19;1.42;;;1.33;;
62110;SDS011;48102;47.526;19.072;2022-07-29T14:34:22;1.50;;;1.40;;
62110;SDS011;48102;47.526;19.072;2022-07-29T14:37:25;2.10;;;1.40;;
62110;SDS011;48102;47.526;19.072;2022-07-29T14:40:28;1.60;;;1.50;;
62110;SDS011;48102;47.526;19.072;2022-07-29T14:43:31;1.90;;;1.70;;
62110;SDS011;48102;47.526;19.072;2022-07-29T14:46:34;2.05;;;1.85;;
62110;SDS011;48102;47.526;19.072;2022-07-29T14:49:37;1.83;;;1.73;;
62110;SDS011;48102;47.526;19.072;2022-07-29T14:52:40;1.85;;;1.75;;
62110;SDS011;48102;47.526;19.072;2022-07-29T14:55:43;1.92;;;1.83;;
62110;SDS011;48102;47.526;19.072;2022-07-29T14:58:46;2.30;;;2.20;;
62110;SDS011;48102;47.526;19.072;2022-07-29T15:01:53;2.62;;;2.05;;
62110;SDS011;48102;47.526;19.072;2022-07-29T15:04:56;2.22;;;2.12;;
62110;SDS011;48102;47.526;19.072;2022-07-29T15:07:59;2.37;;;2.15;;
62110;SDS011;48102;47.526;19.072;2022-07-29T15:11:02;2.08;;;1.98;;
62110;SDS011;48102;47.526;19.072;2022-07-29T15:14:05;2.30;;;2.10;;
